sensor_id;sensor_type;location;lat;lon;timestamp;pressure;altitude;pressure_sealevel;temperature
79632;BMP280;69108;41.120;16.874;2024-02-04T00:00:49;102565.34;;;12.06
79632;BMP280;69108;41.120;16.874;2024-02-04T00:03:17;102557.97;;;12.03
79632;BMP280;69108;41.120;16.874;2024-02-04T00:05:44;102563.03;;;12.05
79632;BMP280;69108;41.120;16.874;2024-02-04T00:08:11;102560.31;;;12.01
79632;BMP280;69108;41.120;16.874;2024-02-04T00:10:41;102556.03;;;12.00
79632;BMP280;69108;41.120;16.874;2024-02-04T00:13:08;102559.13;;;11.99
79632;BMP280;69108;41.120;16.874;2024-02-04T00:15:35;102541.72;;;11.93
79632;BMP280;69108;41.120;16.874;2024-02-04T00:18:02;102556.81;;;11.94
79632;BMP280;69108;41.120;16.874;2024-02-04T00:20:30;102564.94;;;11.94
79632;BMP280;69108;41.120;16.874;2024-02-04T00:22:58;102551.38;;;11.90
79632;BMP280;69108;41.120;16.874;2024-02-04T00:25:24;102555.22;;;11.89
79632;BMP280;69108;41.120;16.874;2024-02-04T00:27:51;102563.75;;;11.88
79632;BMP280;69108;41.120;16.874;2024-02-04T00:30:18;102555.94;;;11.83
79632;BMP280;69108;41.120;16.874;2024-02-04T00:32:45;102560.22;;;11.84
79632;BMP280;69108;41.120;16.874;2024-02-04T00:35:12;102549.34;;;11.70
79632;BMP280;69108;41.120;16.874;2024-02-04T00:37:40;102563.72;;;11.81
79632;BMP280;69108;41.120;16.874;2024-02-04T00:40:12;102570.25;;;11.76
79632;BMP280;69108;41.120;16.874;2024-02-04T00:42:39;102572.97;;;11.76
79632;BMP280;69108;41.120;16.874;2024-02-04T00:45:07;102576.06;;;11.75
79632;BMP280;69108;41.120;16.874;2024-02-04T00:47:33;102565.19;;;11.68
79632;BMP280;69108;41.120;16.874;2024-02-04T00:50:00;102567.47;;;11.62
79632;BMP280;69108;41.120;16.874;2024-02-04T00:52:27;102567.06;;;11.60
79632;BMP280;69108;41.120;16.874;2024-02-04T00:54:55;102570.56;;;11.64
79632;BMP280;69108;41.120;16.874;2024-02-04T00:57:22;102572.88;;;11.58
79632;BMP280;69108;41.120;16.874;2024-02-04T00:59:48;102570.50;;;11.53
79632;BMP280;69108;41.120;16.874;2024-02-04T01:02:16;102559.63;;;11.43
79632;BMP280;69108;41.120;16.874;2024-02-04T01:04:43;102570.47;;;11.46
79632;BMP280;69108;41.120;16.874;2024-02-04T01:07:10;102568.53;;;11.43
79632;BMP280;69108;41.120;16.874;2024-02-04T01:09:36;102574.31;;;11.42
79632;BMP280;69108;41.120;16.874;2024-02-04T01:12:05;102566.56;;;11.40
79632;BMP280;69108;41.120;16.874;2024-02-04T01:14:32;102560.75;;;11.38
79632;BMP280;69108;41.120;16.874;2024-02-04T01:16:59;102556.50;;;11.37
79632;BMP280;69108;41.120;16.874;2024-02-04T01:19:25;102534.00;;;11.26
79632;BMP280;69108;41.120;16.874;2024-02-04T01:21:52;102549.13;;;11.31
79632;BMP280;69108;41.120;16.874;2024-02-04T01:24:19;102547.53;;;11.26
79632;BMP280;69108;41.120;16.874;2024-02-04T01:26:46;102554.13;;;11.29
79632;BMP280;69108;41.120;16.874;2024-02-04T01:29:14;102555.22;;;11.21
79632;BMP280;69108;41.120;16.874;2024-02-04T01:31:40;102559.50;;;11.25
79632;BMP280;69108;41.120;16.874;2024-02-04T01:34:07;102571.88;;;11.23
79632;BMP280;69108;41.120;16.874;2024-02-04T01:36:33;102569.53;;;11.21
79632;BMP280;69108;41.120;16.874;2024-02-04T01:39:00;102561.41;;;11.21
79632;BMP280;69108;41.120;16.874;2024-02-04T01:41:27;102565.69;;;11.22
79632;BMP280;69108;41.120;16.874;2024-02-04T01:43:54;102551.34;;;11.18
79632;BMP280;69108;41.120;16.874;2024-02-04T01:46:22;102555.63;;;11.19
79632;BMP280;69108;41.120;16.874;2024-02-04T01:48:49;102544.38;;;11.14
79632;BMP280;69108;41.120;16.874;2024-02-04T01:51:17;102555.97;;;11.14
79632;BMP280;69108;41.120;16.874;2024-02-04T01:53:45;102538.47;;;11.01
79632;BMP280;69108;41.120;16.874;2024-02-04T01:56:13;102566.38;;;11.12
79632;BMP280;69108;41.120;16.874;2024-02-04T01:58:40;102560.97;;;11.12
79632;BMP280;69108;41.120;16.874;2024-02-04T02:01:07;102562.47;;;11.06
79632;BMP280;69108;41.120;16.874;2024-02-04T02:03:36;102562.88;;;11.12
79632;BMP280;69108;41.120;16.874;2024-02-04T02:06:05;102562.13;;;11.11
79632;BMP280;69108;41.120;16.874;2024-02-04T02:08:31;102565.19;;;11.10
79632;BMP280;69108;41.120;16.874;2024-02-04T02:11:05;102544.56;;;10.95
79632;BMP280;69108;41.120;16.874;2024-02-04T02:13:35;102532.22;;;10.94
79632;BMP280;69108;41.120;16.874;2024-02-04T02:16:07;102552.38;;;11.03
79632;BMP280;69108;41.120;16.874;2024-02-04T02:18:41;102546.97;;;11.00
79632;BMP280;69108;41.120;16.874;2024-02-04T02:21:29;102533.41;;;10.96
79632;BMP280;69108;41.120;16.874;2024-02-04T02:24:04;102532.59;;;10.92
79632;BMP280;69108;41.120;16.874;2024-02-04T02:26:37;102536.13;;;10.96
79632;BMP280;69108;41.120;16.874;2024-02-04T02:29:04;102532.28;;;10.97
79632;BMP280;69108;41.120;16.874;2024-02-04T02:31:33;102542.31;;;10.97
79632;BMP280;69108;41.120;16.874;2024-02-04T02:34:00;102531.03;;;10.88
79632;BMP280;69108;41.120;16.874;2024-02-04T02:36:30;102542.66;;;10.95
79632;BMP280;69108;41.120;16.874;2024-02-04T02:39:07;102543.03;;;10.94
79632;BMP280;69108;41.120;16.874;2024-02-04T02:41:38;102539.19;;;10.91
79632;BMP280;69108;41.120;16.874;2024-02-04T02:44:07;102539.91;;;10.88
79632;BMP280;69108;41.120;16.874;2024-02-04T02:46:34;102534.09;;;10.86
79632;BMP280;69108;41.120;16.874;2024-02-04T02:49:02;102526.72;;;10.83
79632;BMP280;69108;41.120;16.874;2024-02-04T02:51:29;102525.19;;;10.82
79632;BMP280;69108;41.120;16.874;2024-02-04T02:53:56;102528.25;;;10.80
79632;BMP280;69108;41.120;16.874;2024-02-04T02:56:23;102524.00;;;10.79
79632;BMP280;69108;41.120;16.874;2024-02-04T02:58:51;102525.53;;;10.77
79632;BMP280;69108;41.120;16.874;2024-02-04T03:01:17;102522.81;;;10.73
79632;BMP280;69108;41.120;16.874;2024-02-04T03:03:44;102525.09;;;10.71
79632;BMP280;69108;41.120;16.874;2024-02-04T03:06:11;102518.47;;;10.69
79632;BMP280;69108;41.120;16.874;2024-02-04T03:08:38;102509.63;;;10.68
79632;BMP280;69108;41.120;16.874;2024-02-04T03:11:04;102508.81;;;10.64
79632;BMP280;69108;41.120;16.874;2024-02-04T03:13:31;102505.72;;;10.66
79632;BMP280;69108;41.120;16.874;2024-02-04T03:15:59;102506.50;;;10.63
79632;BMP280;69108;41.120;16.874;2024-02-04T03:18:26;102505.31;;;10.60
79632;BMP280;69108;41.120;16.874;2024-02-04T03:20:53;102503.34;;;10.61
79632;BMP280;69108;41.120;16.874;2024-02-04T03:23:19;102506.81;;;10.58
79632;BMP280;69108;41.120;16.874;2024-02-04T03:25:46;102499.44;;;10.55
79632;BMP280;69108;41.120;16.874;2024-02-04T03:28:13;102502.94;;;10.55
79632;BMP280;69108;41.120;16.874;2024-02-04T03:30:40;102504.44;;;10.53
79632;BMP280;69108;41.120;16.874;2024-02-04T03:33:08;102506.00;;;10.50
79632;BMP280;69108;41.120;16.874;2024-02-04T03:35:35;102507.50;;;10.48
79632;BMP280;69108;41.120;16.874;2024-02-04T03:38:02;102499.03;;;10.49
79632;BMP280;69108;41.120;16.874;2024-02-04T03:40:29;102499.41;;;10.48
79632;BMP280;69108;41.120;16.874;2024-02-04T03:42:56;102499.41;;;10.48
79632;BMP280;69108;41.120;16.874;2024-02-04T03:45:23;102499.41;;;10.48
79632;BMP280;69108;41.120;16.874;2024-02-04T03:47:49;102497.84;;;10.47
79632;BMP280;69108;41.120;16.874;2024-02-04T03:50:17;102491.66;;;10.46
79632;BMP280;69108;41.120;16.874;2024-02-04T03:52:44;102504.00;;;10.44
79632;BMP280;69108;41.120;16.874;2024-02-04T03:55:11;102494.34;;;10.43
79632;BMP280;69108;41.120;16.874;2024-02-04T03:57:37;102495.91;;;10.44
79632;BMP280;69108;41.120;16.874;2024-02-04T04:00:07;102489.31;;;10.41
79632;BMP280;69108;41.120;16.874;2024-02-04T04:02:34;102483.13;;;10.41
79632;BMP280;69108;41.120;16.874;2024-02-04T04:05:01;102484.28;;;10.40
79632;BMP280;69108;41.120;16.874;2024-02-04T04:07:29;102483.84;;;10.38
79632;BMP280;69108;41.120;16.874;2024-02-04T04:09:56;102476.88;;;10.33
79632;BMP280;69108;41.120;16.874;2024-02-04T04:12:23;102488.09;;;10.35
79632;BMP280;69108;41.120;16.874;2024-02-04T04:14:49;102476.88;;;10.33
79632;BMP280;69108;41.120;16.874;2024-02-04T04:17:16;102473.00;;;10.31
79632;BMP280;69108;41.120;16.874;2024-02-04T04:19:43;102459.09;;;10.29
79632;BMP280;69108;41.120;16.874;2024-02-04T04:22:10;102460.63;;;10.30
79632;BMP280;69108;41.120;16.874;2024-02-04T04:24:39;102469.09;;;10.28
79632;BMP280;69108;41.120;16.874;2024-02-04T04:27:06;102473.00;;;10.31
79632;BMP280;69108;41.120;16.874;2024-02-04T04:29:32;102471.44;;;10.30
79632;BMP280;69108;41.120;16.874;2024-02-04T04:31:59;102468.38;;;10.31
79632;BMP280;69108;41.120;16.874;2024-02-04T04:34:26;102470.28;;;10.31
79632;BMP280;69108;41.120;16.874;2024-02-04T04:36:52;102468.38;;;10.31
79632;BMP280;69108;41.120;16.874;2024-02-04T04:39:19;102473.00;;;10.31
79632;BMP280;69108;41.120;16.874;2024-02-04T04:41:47;102464.88;;;10.31
79632;BMP280;69108;41.120;16.874;2024-02-04T04:44:14;102470.66;;;10.29
79632;BMP280;69108;41.120;16.874;2024-02-04T04:46:41;102471.09;;;10.31
79632;BMP280;69108;41.120;16.874;2024-02-04T04:49:07;102470.66;;;10.29
79632;BMP280;69108;41.120;16.874;2024-02-04T04:51:34;102474.56;;;10.32
79632;BMP280;69108;41.120;16.874;2024-02-04T04:54:01;102475.69;;;10.31
79632;BMP280;69108;41.120;16.874;2024-02-04T04:56:27;102476.03;;;10.29
79632;BMP280;69108;41.120;16.874;2024-02-04T04:58:56;102475.66;;;10.27
79632;BMP280;69108;41.120;16.874;2024-02-04T05:01:22;102480.25;;;10.23
79632;BMP280;69108;41.120;16.874;2024-02-04T05:03:49;102483.72;;;10.24
79632;BMP280;69108;41.120;16.874;2024-02-04T05:06:15;102475.22;;;10.22
79632;BMP280;69108;41.120;16.874;2024-02-04T05:08:42;102469.81;;;10.22
79632;BMP280;69108;41.120;16.874;2024-02-04T05:11:09;102492.53;;;10.21
79632;BMP280;69108;41.120;16.874;2024-02-04T05:13:38;102485.59;;;10.20
79632;BMP280;69108;41.120;16.874;2024-02-04T05:16:06;102482.91;;;10.20
79632;BMP280;69108;41.120;16.874;2024-02-04T05:18:33;102481.38;;;10.19
79632;BMP280;69108;41.120;16.874;2024-02-04T05:21:01;102487.16;;;10.17
79632;BMP280;69108;41.120;16.874;2024-02-04T05:23:27;102489.84;;;10.17
79632;BMP280;69108;41.120;16.874;2024-02-04T05:25:54;102481.31;;;10.15
79632;BMP280;69108;41.120;16.874;2024-02-04T05:28:21;102481.28;;;10.12
79632;BMP280;69108;41.120;16.874;2024-02-04T05:30:48;102482.38;;;10.07
79632;BMP280;69108;41.120;16.874;2024-02-04T05:33:16;102480.03;;;10.02
79632;BMP280;69108;41.120;16.874;2024-02-04T05:35:42;102483.50;;;10.03
79632;BMP280;69108;41.120;16.874;2024-02-04T05:38:09;102483.50;;;10.03
79632;BMP280;69108;41.120;16.874;2024-02-04T05:40:36;102486.97;;;10.03
79632;BMP280;69108;41.120;16.874;2024-02-04T05:43:03;102491.22;;;10.04
79632;BMP280;69108;41.120;16.874;2024-02-04T05:45:32;102493.91;;;10.04
79632;BMP280;69108;41.120;16.874;2024-02-04T05:47:59;102491.19;;;10.00
79632;BMP280;69108;41.120;16.874;2024-02-04T05:50:27;102500.44;;;9.99
79632;BMP280;69108;41.120;16.874;2024-02-04T05:52:54;102501.94;;;9.97
79632;BMP280;69108;41.120;16.874;2024-02-04T05:55:20;102510.38;;;9.95
79632;BMP280;69108;41.120;16.874;2024-02-04T05:57:47;102501.13;;;9.93
79632;BMP280;69108;41.120;16.874;2024-02-04T06:00:15;102492.53;;;9.84
79632;BMP280;69108;41.120;16.874;2024-02-04T06:02:42;102501.50;;;9.91
79632;BMP280;69108;41.120;16.874;2024-02-04T06:05:09;102502.56;;;9.87
79632;BMP280;69108;41.120;16.874;2024-02-04T06:07:37;102506.44;;;9.86
79632;BMP280;69108;41.120;16.874;2024-02-04T06:10:08;102501.78;;;9.86
79632;BMP280;69108;41.120;16.874;2024-02-04T06:12:35;102511.03;;;9.85
79632;BMP280;69108;41.120;16.874;2024-02-04T06:15:01;102506.44;;;9.86
79632;BMP280;69108;41.120;16.874;2024-02-04T06:17:28;102502.56;;;9.87
79632;BMP280;69108;41.120;16.874;2024-02-04T06:19:55;102498.34;;;9.86
79632;BMP280;69108;41.120;16.874;2024-02-04T06:22:22;102493.69;;;9.86
79632;BMP280;69108;41.120;16.874;2024-02-04T06:24:51;102504.09;;;9.84
79632;BMP280;69108;41.120;16.874;2024-02-04T06:27:18;102494.44;;;9.83
79632;BMP280;69108;41.120;16.874;2024-02-04T06:29:44;102499.94;;;9.90
79632;BMP280;69108;41.120;16.874;2024-02-04T06:32:11;102506.16;;;9.94
79632;BMP280;69108;41.120;16.874;2024-02-04T06:34:38;102519.34;;;9.99
79632;BMP280;69108;41.120;16.874;2024-02-04T06:37:05;102509.38;;;10.07
79632;BMP280;69108;41.120;16.874;2024-02-04T06:39:32;102520.28;;;10.14
79632;BMP280;69108;41.120;16.874;2024-02-04T06:42:00;102515.31;;;10.20
79632;BMP280;69108;41.120;16.874;2024-02-04T06:44:27;102505.31;;;10.24
79632;BMP280;69108;41.120;16.874;2024-02-04T06:46:53;102511.16;;;10.29
79632;BMP280;69108;41.120;16.874;2024-02-04T06:49:20;102514.34;;;10.38
79632;BMP280;69108;41.120;16.874;2024-02-04T06:51:47;102507.50;;;10.48
79632;BMP280;69108;41.120;16.874;2024-02-04T06:54:14;102510.69;;;10.57
79632;BMP280;69108;41.120;16.874;2024-02-04T06:56:40;102520.41;;;10.65
79632;BMP280;69108;41.120;16.874;2024-02-04T06:59:08;102523.16;;;10.72
79632;BMP280;69108;41.120;16.874;2024-02-04T07:01:35;102515.13;;;10.79
79632;BMP280;69108;41.120;16.874;2024-02-04T07:04:02;102504.34;;;10.86
79632;BMP280;69108;41.120;16.874;2024-02-04T07:06:29;102503.63;;;10.93
79632;BMP280;69108;41.120;16.874;2024-02-04T07:08:55;102501.03;;;11.00
79632;BMP280;69108;41.120;16.874;2024-02-04T07:11:22;102502.97;;;11.06
79632;BMP280;69108;41.120;16.874;2024-02-04T07:13:49;102501.47;;;11.12
79632;BMP280;69108;41.120;16.874;2024-02-04T07:16:18;102504.59;;;11.18
79632;BMP280;69108;41.120;16.874;2024-02-04T07:18:44;102500.34;;;11.20
79632;BMP280;69108;41.120;16.874;2024-02-04T07:21:11;102511.97;;;11.24
79632;BMP280;69108;41.120;16.874;2024-02-04T07:23:38;102506.97;;;11.26
79632;BMP280;69108;41.120;16.874;2024-02-04T07:26:04;102500.03;;;11.32
79632;BMP280;69108;41.120;16.874;2024-02-04T07:28:31;102503.94;;;11.38
79632;BMP280;69108;41.120;16.874;2024-02-04T07:30:58;102502.44;;;11.44
79632;BMP280;69108;41.120;16.874;2024-02-04T07:33:26;102497.44;;;11.50
79632;BMP280;69108;41.120;16.874;2024-02-04T07:35:52;102502.47;;;11.55
79632;BMP280;69108;41.120;16.874;2024-02-04T07:38:19;102499.81;;;11.58
79632;BMP280;69108;41.120;16.874;2024-02-04T07:40:45;102493.63;;;11.61
79632;BMP280;69108;41.120;16.874;2024-02-04T07:43:12;102509.91;;;11.65
79632;BMP280;69108;41.120;16.874;2024-02-04T07:45:39;102514.16;;;11.70
79632;BMP280;69108;41.120;16.874;2024-02-04T07:48:06;102513.78;;;11.75
79632;BMP280;69108;41.120;16.874;2024-02-04T07:50:36;102513.44;;;11.80
79632;BMP280;69108;41.120;16.874;2024-02-04T07:53:02;102520.41;;;11.84
79632;BMP280;69108;41.120;16.874;2024-02-04T07:55:29;102523.13;;;11.91
79632;BMP280;69108;41.120;16.874;2024-02-04T07:57:56;102525.84;;;11.98
79632;BMP280;69108;41.120;16.874;2024-02-04T08:00:22;102510.78;;;12.04
79632;BMP280;69108;41.120;16.874;2024-02-04T08:02:49;102514.72;;;12.10
79632;BMP280;69108;41.120;16.874;2024-02-04T08:05:16;102524.00;;;12.16
79632;BMP280;69108;41.120;16.874;2024-02-04T08:07:44;102526.72;;;12.23
79632;BMP280;69108;41.120;16.874;2024-02-04T08:10:11;102524.41;;;12.29
79632;BMP280;69108;41.120;16.874;2024-02-04T08:12:37;102524.78;;;12.38
79632;BMP280;69108;41.120;16.874;2024-02-04T08:15:05;102526.34;;;12.46
79632;BMP280;69108;41.120;16.874;2024-02-04T08:17:32;102520.16;;;12.53
79632;BMP280;69108;41.120;16.874;2024-02-04T08:19:59;102516.28;;;12.61
79632;BMP280;69108;41.120;16.874;2024-02-04T08:22:25;102517.47;;;12.67
79632;BMP280;69108;41.120;16.874;2024-02-04T08:24:53;102519.00;;;12.75
79632;BMP280;69108;41.120;16.874;2024-02-04T08:27:20;102504.31;;;12.76
79632;BMP280;69108;41.120;16.874;2024-02-04T08:29:47;102522.09;;;12.94
79632;BMP280;69108;41.120;16.874;2024-02-04T08:32:13;102529.84;;;13.03
79632;BMP280;69108;41.120;16.874;2024-02-04T08:34:40;102534.84;;;13.11
79632;BMP280;69108;41.120;16.874;2024-02-04T08:37:07;102541.44;;;13.21
79632;BMP280;69108;41.120;16.874;2024-02-04T08:39:34;102542.19;;;13.28
79632;BMP280;69108;41.120;16.874;2024-02-04T08:42:02;102539.06;;;13.37
79632;BMP280;69108;41.120;16.874;2024-02-04T08:44:28;102541.34;;;13.46
79632;BMP280;69108;41.120;16.874;2024-02-04T08:46:55;102533.22;;;13.53
79632;BMP280;69108;41.120;16.874;2024-02-04T08:49:22;102549.09;;;13.61
79632;BMP280;69108;41.120;16.874;2024-02-04T08:51:48;102544.00;;;13.67
79632;BMP280;69108;41.120;16.874;2024-02-04T08:54:15;102546.72;;;13.70
79632;BMP280;69108;41.120;16.874;2024-02-04T08:56:42;102534.72;;;13.64
79632;BMP280;69108;41.120;16.874;2024-02-04T08:59:11;102542.03;;;13.74
79632;BMP280;69108;41.120;16.874;2024-02-04T09:01:37;102547.44;;;13.78
79632;BMP280;69108;41.120;16.874;2024-02-04T09:04:04;102553.25;;;13.80
79632;BMP280;69108;41.120;16.874;2024-02-04T09:06:30;102556.75;;;13.84
79632;BMP280;69108;41.120;16.874;2024-02-04T09:08:57;102547.00;;;13.90
79632;BMP280;69108;41.120;16.874;2024-02-04T09:11:24;102555.53;;;13.95
79632;BMP280;69108;41.120;16.874;2024-02-04T09:13:51;102560.53;;;14.00
79632;BMP280;69108;41.120;16.874;2024-02-04T09:16:19;102557.38;;;14.05
79632;BMP280;69108;41.120;16.874;2024-02-04T09:18:45;102558.53;;;14.08
79632;BMP280;69108;41.120;16.874;2024-02-04T09:21:12;102560.06;;;14.12
79632;BMP280;69108;41.120;16.874;2024-02-04T09:23:39;102556.19;;;14.17
79632;BMP280;69108;41.120;16.874;2024-02-04T09:26:06;102562.75;;;14.19
79632;BMP280;69108;41.120;16.874;2024-02-04T09:28:32;102568.19;;;14.23
79632;BMP280;69108;41.120;16.874;2024-02-04T09:30:59;102565.81;;;14.29
79632;BMP280;69108;41.120;16.874;2024-02-04T09:33:27;102576.22;;;14.37
79632;BMP280;69108;41.120;16.874;2024-02-04T09:35:54;102572.63;;;14.47
79632;BMP280;69108;41.120;16.874;2024-02-04T09:38:21;102583.13;;;14.52
79632;BMP280;69108;41.120;16.874;2024-02-04T09:40:48;102585.63;;;14.77
79632;BMP280;69108;41.120;16.874;2024-02-04T09:43:15;102583.38;;;15.12
79632;BMP280;69108;41.120;16.874;2024-02-04T09:45:42;102591.88;;;15.52
79632;BMP280;69108;41.120;16.874;2024-02-04T09:48:09;102588.84;;;15.76
79632;BMP280;69108;41.120;16.874;2024-02-04T09:50:38;102593.81;;;15.85
79632;BMP280;69108;41.120;16.874;2024-02-04T09:53:07;102603.59;;;16.09
79632;BMP280;69108;41.120;16.874;2024-02-04T09:55:38;102591.59;;;16.30
79632;BMP280;69108;41.120;16.874;2024-02-04T09:58:06;102606.53;;;16.71
79632;BMP280;69108;41.120;16.874;2024-02-04T10:00:33;102597.38;;;16.81
79632;BMP280;69108;41.120;16.874;2024-02-04T10:03:02;102609.84;;;16.82
79632;BMP280;69108;41.120;16.874;2024-02-04T10:05:30;102611.53;;;17.39
79632;BMP280;69108;41.120;16.874;2024-02-04T10:07:58;102609.06;;;17.64
79632;BMP280;69108;41.120;16.874;2024-02-04T10:10:25;102611.88;;;17.96
79632;BMP280;69108;41.120;16.874;2024-02-04T10:12:52;102613.31;;;18.00
79632;BMP280;69108;41.120;16.874;2024-02-04T10:15:18;102608.63;;;18.01
79632;BMP280;69108;41.120;16.874;2024-02-04T10:17:45;102622.25;;;18.20
79632;BMP280;69108;41.120;16.874;2024-02-04T10:20:12;102623.53;;;18.16
79632;BMP280;69108;41.120;16.874;2024-02-04T10:22:39;102631.06;;;17.76
79632;BMP280;69108;41.120;16.874;2024-02-04T10:25:10;102628.41;;;17.34
79632;BMP280;69108;41.120;16.874;2024-02-04T10:27:37;102620.00;;;17.64
79632;BMP280;69108;41.120;16.874;2024-02-04T10:30:05;102611.22;;;17.88
79632;BMP280;69108;41.120;16.874;2024-02-04T10:32:32;102617.81;;;18.10
79632;BMP280;69108;41.120;16.874;2024-02-04T10:34:59;102608.38;;;18.11
79632;BMP280;69108;41.120;16.874;2024-02-04T10:37:26;102607.78;;;18.20
79632;BMP280;69108;41.120;16.874;2024-02-04T10:39:53;102594.31;;;18.74
79632;BMP280;69108;41.120;16.874;2024-02-04T10:42:24;102588.09;;;19.56
79632;BMP280;69108;41.120;16.874;2024-02-04T10:44:51;102589.59;;;19.82
79632;BMP280;69108;41.120;16.874;2024-02-04T10:47:23;102582.50;;;19.59
79632;BMP280;69108;41.120;16.874;2024-02-04T10:49:51;102577.06;;;19.18
79632;BMP280;69108;41.120;16.874;2024-02-04T10:52:20;102572.84;;;18.72
79632;BMP280;69108;41.120;16.874;2024-02-04T10:54:47;102572.16;;;18.23
79632;BMP280;69108;41.120;16.874;2024-02-04T10:57:20;102566.22;;;17.77
79632;BMP280;69108;41.120;16.874;2024-02-04T10:59:48;102570.41;;;17.46
79632;BMP280;69108;41.120;16.874;2024-02-04T11:02:15;102574.84;;;17.20
79632;BMP280;69108;41.120;16.874;2024-02-04T11:04:43;102566.41;;;16.91
79632;BMP280;69108;41.120;16.874;2024-02-04T11:07:10;102566.56;;;16.81
79632;BMP280;69108;41.120;16.874;2024-02-04T11:09:39;102558.94;;;16.72
79632;BMP280;69108;41.120;16.874;2024-02-04T11:12:12;102555.22;;;16.63
79632;BMP280;69108;41.120;16.874;2024-02-04T11:14:44;102560.75;;;16.59
79632;BMP280;69108;41.120;16.874;2024-02-04T11:17:29;102557.75;;;16.50
79632;BMP280;69108;41.120;16.874;2024-02-04T11:20:15;102549.75;;;16.40
79632;BMP280;69108;41.120;16.874;2024-02-04T11:23:03;102548.88;;;16.23
79632;BMP280;69108;41.120;16.874;2024-02-04T11:25:43;102545.84;;;16.17
79632;BMP280;69108;41.120;16.874;2024-02-04T11:28:11;102541.22;;;16.14
79632;BMP280;69108;41.120;16.874;2024-02-04T11:30:38;102536.59;;;16.11
79632;BMP280;69108;41.120;16.874;2024-02-04T11:33:06;102518.31;;;16.08
79632;BMP280;69108;41.120;16.874;2024-02-04T11:35:33;102526.03;;;16.13
79632;BMP280;69108;41.120;16.874;2024-02-04T11:38:00;102540.84;;;16.12
79632;BMP280;69108;41.120;16.874;2024-02-04T11:40:30;102532.31;;;16.10
79632;BMP280;69108;41.120;16.874;2024-02-04T11:43:04;102538.53;;;16.11
79632;BMP280;69108;41.120;16.874;2024-02-04T11:45:31;102531.13;;;16.11
79632;BMP280;69108;41.120;16.874;2024-02-04T11:48:00;102524.78;;;16.18
79632;BMP280;69108;41.120;16.874;2024-02-04T11:50:29;102523.94;;;16.21
79632;BMP280;69108;41.120;16.874;2024-02-04T11:53:06;102518.50;;;16.21
79632;BMP280;69108;41.120;16.874;2024-02-04T11:55:34;102505.28;;;16.19
79632;BMP280;69108;41.120;16.874;2024-02-04T11:58:01;102510.72;;;16.23
79632;BMP280;69108;41.120;16.874;2024-02-04T12:00:28;102515.31;;;16.26
79632;BMP280;69108;41.120;16.874;2024-02-04T12:03:02;102513.00;;;16.25
79632;BMP280;69108;41.120;16.874;2024-02-04T12:05:32;102507.50;;;16.28
79632;BMP280;69108;41.120;16.874;2024-02-04T12:08:01;102500.00;;;16.32
79632;BMP280;69108;41.120;16.874;2024-02-04T12:10:28;102490.78;;;16.26
79632;BMP280;69108;41.120;16.874;2024-02-04T12:12:55;102479.50;;;16.24
79632;BMP280;69108;41.120;16.874;2024-02-04T12:15:23;102483.84;;;16.22
79632;BMP280;69108;41.120;16.874;2024-02-04T12:17:49;102476.66;;;16.31
79632;BMP280;69108;41.120;16.874;2024-02-04T12:20:16;102466.13;;;16.33
79632;BMP280;69108;41.120;16.874;2024-02-04T12:22:44;102473.44;;;16.36
79632;BMP280;69108;41.120;16.874;2024-02-04T12:25:12;102465.28;;;16.36
79632;BMP280;69108;41.120;16.874;2024-02-04T12:27:38;102465.28;;;16.36
79632;BMP280;69108;41.120;16.874;2024-02-04T12:30:06;102461.44;;;16.34
79632;BMP280;69108;41.120;16.874;2024-02-04T12:32:34;102468.47;;;16.31
79632;BMP280;69108;41.120;16.874;2024-02-04T12:35:02;102457.88;;;16.37
79632;BMP280;69108;41.120;16.874;2024-02-04T12:37:29;102462.16;;;16.38
79632;BMP280;69108;41.120;16.874;2024-02-04T12:39:57;102463.69;;;16.39
79632;BMP280;69108;41.120;16.874;2024-02-04T12:42:25;102457.44;;;16.38
79632;BMP280;69108;41.120;16.874;2024-02-04T12:44:51;102454.59;;;16.45
79632;BMP280;69108;41.120;16.874;2024-02-04T12:47:19;102443.53;;;16.52
79632;BMP280;69108;41.120;16.874;2024-02-04T12:49:46;102438.94;;;16.49
79632;BMP280;69108;41.120;16.874;2024-02-04T12:52:12;102442.88;;;16.48
79632;BMP280;69108;41.120;16.874;2024-02-04T12:54:42;102439.00;;;16.46
79632;BMP280;69108;41.120;16.874;2024-02-04T12:57:21;102435.06;;;16.47
79632;BMP280;69108;41.120;16.874;2024-02-04T12:59:48;102428.16;;;16.42
79632;BMP280;69108;41.120;16.874;2024-02-04T13:02:15;102433.38;;;16.33
79632;BMP280;69108;41.120;16.874;2024-02-04T13:04:42;102432.56;;;16.36
79632;BMP280;69108;41.120;16.874;2024-02-04T13:07:09;102421.16;;;16.41
79632;BMP280;69108;41.120;16.874;2024-02-04T13:09:37;102434.88;;;16.38
79632;BMP280;69108;41.120;16.874;2024-02-04T13:12:04;102426.28;;;16.39
79632;BMP280;69108;41.120;16.874;2024-02-04T13:14:32;102429.50;;;16.34
79632;BMP280;69108;41.120;16.874;2024-02-04T13:16:59;102420.56;;;16.30
79632;BMP280;69108;41.120;16.874;2024-02-04T13:19:32;102417.03;;;16.33
79632;BMP280;69108;41.120;16.874;2024-02-04T13:21:59;102416.19;;;16.36
79632;BMP280;69108;41.120;16.874;2024-02-04T13:24:25;102421.03;;;16.29
79632;BMP280;69108;41.120;16.874;2024-02-04T13:26:52;102410.69;;;16.16
79632;BMP280;69108;41.120;16.874;2024-02-04T13:29:19;102416.22;;;16.13
79632;BMP280;69108;41.120;16.874;2024-02-04T13:31:47;102418.97;;;16.09
79632;BMP280;69108;41.120;16.874;2024-02-04T13:34:14;102420.97;;;16.09
79632;BMP280;69108;41.120;16.874;2024-02-04T13:36:42;102415.44;;;16.12
79632;BMP280;69108;41.120;16.874;2024-02-04T13:39:08;102415.44;;;16.12
79632;BMP280;69108;41.120;16.874;2024-02-04T13:41:37;102412.72;;;16.12
79632;BMP280;69108;41.120;16.874;2024-02-04T13:44:04;102411.09;;;16.15
79632;BMP280;69108;41.120;16.874;2024-02-04T13:46:31;102406.56;;;16.08